• Join FlightAware (Why Join?)
  • Login
  • US Flag 
05:28AM EDT


 

Airport Tracker/Info


-or-


 

Live Flight TrackerFlight Track Log ✈ DAL1042 ✈ 24-Jun-2013 ✈ KSNA - KATL

Flight Track Log - Related Links

Times and Time Zones

All times are in EDT time to prevent confusion due to time zone crossing. See the DAL1042 flight status page for this flight to view local times or setup timezone preferences in your user account.

Time Position Orientation Groundspeed Altitude Reporting Facility
EDT Latitude Longitude Course Direction KTS MPH feet Rate Location/Type
10:14AM 33.7000 -117.8500 90° East 160 184 1,600  Level Southern California TRACON
10:15AM 33.7667 -117.8167 23° Northeast 240 276 3,400 2,160 Climbing Southern California TRACON
10:16AM 33.4667 -117.7626 90° East  Level FlightAware Approximate
10:16AM 33.7833 -117.7500 73° East 282 325 6,000  Level Southern California TRACON
10:17AM 33.5037 -117.6215 54° Northeast  Level FlightAware Approximate
10:18AM 33.5608 -117.4824 66° East  Level FlightAware Approximate
10:18AM 33.6314 -117.6356 148° Southeast 299 344 11,200  Level Los Angeles Center
10:19AM 33.5833 -117.3321 90° East  Level FlightAware Approximate
10:19AM 33.5800 -117.5283 120° Southeast 376 433 12,700  Level Los Angeles Center
10:20AM 33.5783 -117.3903 91° East 413 475 14,800 1,980 Climbing Los Angeles Center
10:21AM 33.5847 -117.2467 87° East 431 496 16,800 1,800 Climbing Los Angeles Center
10:22AM 33.5917 -117.1011 87° East 438 504 18,600 1,800 Climbing Los Angeles Center
10:23AM 33.5981 -116.9231 87° East 449 517 20,500 1,560 Climbing Los Angeles Center
10:24AM 33.6031 -116.7831 88° East 452 520 21,900 1,320 Climbing Los Angeles Center
10:25AM 33.6100 -116.6256 87° East 469 540 23,300 1,200 Climbing Los Angeles Center
10:26AM 33.6172 -116.4675 87° East 473 544 24,500 1,020 Climbing Los Angeles Center
10:27AM 33.6419 -116.3042 80° East 494 568 25,500 1,200 Climbing Los Angeles Center
10:29AM 33.6708 -116.1044 80° East 504 580 27,000 1,140 Climbing Los Angeles Center
10:30AM 33.6997 -115.9389 78° East 505 581 27,900 1,020 Climbing Los Angeles Center
10:31AM 33.7278 -115.7708 79° East 511 588 29,200 1,440 Climbing Los Angeles Center
10:32AM 33.7547 -115.6036 79° East 511 588 30,900 840 Climbing Los Angeles Center
10:33AM 33.7758 -115.4708 79° East 507 583 31,000  Climbing Los Angeles Center
10:34AM 33.8083 -115.2703 79° East 508 585 31,000 420 Level Los Angeles Center
10:35AM 33.8411 -115.0778 78° East 515 593 31,900 1,140 Climbing Los Angeles Center
10:36AM 33.8681 -114.9056 79° East 499 574 33,400 1,320 Climbing Los Angeles Center
10:37AM 33.8956 -114.7419 79° East 499 574 34,700 1,200 Climbing Los Angeles Center
10:38AM 33.9217 -114.5786 79° East 498 573 35,900 1,080 Climbing Los Angeles Center
10:39AM 33.9444 -114.4197 80° East 487 560 37,000 480 Climbing Los Angeles Center
10:40AM 33.9681 -114.2950 77° East 481 554 37,000  Level Los Angeles Center
10:41AM 33.9950 -114.1000 80° East 489 563 37,000  Level Los Angeles Center
10:42AM 34.0194 -113.9383 80° East 493 567 37,000  Level Los Angeles Center
10:43AM 34.0436 -113.7758 80° East 492 566 37,000  Level Los Angeles Center
10:44AM 34.0722 -113.5883 80° East 494 568 37,000  Level Los Angeles Center
10:45AM 34.0964 -113.4247 80° East 495 570 37,000  Level Los Angeles Center
10:46AM 34.1267 -113.2161 80° East 487 560 37,000  Level Albuquerque Center
10:47AM 34.1500 -113.0575 80° East 484 557 37,000  Level Albuquerque Center
10:48AM 34.1714 -112.9000 81° East 478 550 37,000  Level Albuquerque Center
10:49AM 34.1939 -112.7408 80° East 480 552 37,000  Level Albuquerque Center
10:50AM 34.2158 -112.5831 80° East 478 550 37,000  Level Albuquerque Center
10:51AM 34.2375 -112.4250 81° East 477 549 37,000  Level Albuquerque Center
10:52AM 34.2603 -112.2658 80° East 479 551 37,000  Level Albuquerque Center
10:53AM 34.2867 -112.0742 80° East 479 551 37,000  Level Albuquerque Center
10:54AM 34.3083 -111.9139 81° East 479 551 37,000  Level Albuquerque Center
10:55AM 34.3297 -111.7539 81° East 477 549 37,000  Level Albuquerque Center
10:57AM 34.3503 -111.5936 81° East 478 550 37,000  Level Albuquerque Center
10:58AM 34.3714 -111.4353 81° East 476 548 37,000  Level Albuquerque Center
10:59AM 34.3925 -111.2761 81° East 476 548 37,000  Level Albuquerque Center
11:00AM 34.4125 -111.1161 81° East 480 552 37,000  Level Albuquerque Center
11:01AM 34.4333 -110.9558 81° East 481 554 37,000  Level Albuquerque Center
11:02AM 34.4572 -110.7636 81° East 482 555 37,000  Level Albuquerque Center
11:03AM 34.4781 -110.6019 81° East 485 558 37,000  Level Albuquerque Center
11:04AM 34.4964 -110.4400 82° East 485 558 37,000  Level Albuquerque Center
11:05AM 34.5164 -110.2753 82° East 485 558 37,000  Level Albuquerque Center
11:06AM 34.5375 -110.0958 82° East 483 556 37,000  Level Albuquerque Center
11:07AM 34.5564 -109.9433 81° East 481 554 37,000  Level Albuquerque Center
11:08AM 34.5764 -109.7650 82° East 479 551 37,000  Level Albuquerque Center
11:09AM 34.5942 -109.6122 82° East 479 551 37,000  Level Albuquerque Center
11:10AM 34.6147 -109.4342 82° East 478 550 37,000  Level Albuquerque Center
11:11AM 34.6325 -109.2786 82° East 484 557 37,000  Level Albuquerque Center
11:12AM 34.6519 -109.0928 83° East 495 570 37,000  Level Albuquerque Center
11:13AM 34.6700 -108.9367 82° East 492 566 37,000  Level Albuquerque Center
11:14AM 34.6900 -108.7547 82° East 490 564 37,000  Level Albuquerque Center
11:15AM 34.7061 -108.5972 83° East 491 565 37,000  Level Albuquerque Center
11:16AM 34.7219 -108.4383 83° East 493 567 37,000  Level Albuquerque Center
11:17AM 34.7411 -108.2722 82° East 497 572 37,000  Level Albuquerque Center
11:18AM 34.7608 -108.0681 83° East 496 571 37,000  Level Albuquerque Center
11:19AM 34.7769 -107.9053 83° East 500 575 37,000  Level Albuquerque Center
11:20AM 34.7933 -107.7375 83° East 500 575 37,000  Level Albuquerque Center
11:21AM 34.8097 -107.5714 83° East 497 572 37,000  Level Albuquerque Center
11:22AM 34.8253 -107.4058 83° East 497 572 37,000  Level Albuquerque Center
11:23AM 34.8406 -107.2397 84° East 497 572 37,000  Level Albuquerque Center
11:24AM 34.8597 -107.0556 83° East 499 574 37,000  Level Albuquerque Center
11:25AM 34.8756 -106.8681 84° East 499 574 37,000 300 Level Albuquerque Center
11:27AM 34.8900 -106.7081 84° East 498 573 37,700 720 Climbing Albuquerque Center
11:28AM 34.9078 -106.5111 84° East 501 577 38,600 600 Climbing Albuquerque Center
11:29AM 34.9208 -106.3425 85° East 502 578 39,000 180 Climbing Albuquerque Center
11:30AM 34.9342 -106.1775 84° East 494 568 39,000  Level Albuquerque Center
11:31AM 34.9486 -106.0111 84° East 496 571 39,000  Level Albuquerque Center
11:32AM 34.9628 -105.8342 84° East 503 579 39,000  Level Albuquerque Center
11:33AM 34.9769 -105.6639 84° East 503 579 39,000  Level Albuquerque Center
11:34AM 34.9903 -105.4903 85° East 508 585 39,000  Level Albuquerque Center
11:35AM 35.0067 -105.2886 84° East 509 586 39,000  Level Albuquerque Center
11:36AM 35.0208 -105.1156 84° East 511 588 39,000  Level Albuquerque Center
11:37AM 35.0336 -104.9436 85° East 508 585 39,000  Level Albuquerque Center
11:38AM 35.0467 -104.7714 85° East 507 583 39,000  Level Albuquerque Center
11:39AM 35.0592 -104.6006 85° East 504 580 39,000  Level Albuquerque Center
11:40AM 35.0706 -104.4325 85° East 498 573 39,000  Level Albuquerque Center
11:41AM 35.0856 -104.2603 84° East 501 577 39,000  Level Albuquerque Center
11:42AM 35.0967 -104.0933 85° East 496 571 39,000  Level Albuquerque Center
11:43AM 35.1075 -103.9050 86° East 495 570 39,000  Level Albuquerque Center
11:44AM 35.1186 -103.7372 85° East 495 570 39,000  Level Albuquerque Center
11:45AM 35.1294 -103.5700 85° East 493 567 39,000  Level Albuquerque Center
11:46AM 35.1419 -103.3758 85° East 490 564 39,000  Level Albuquerque Center
11:47AM 35.1519 -103.2089 86° East 489 563 39,000  Level Albuquerque Center
11:48AM 35.1628 -103.0406 85° East 492 566 39,000  Level Albuquerque Center
11:49AM 35.1708 -102.8650 87° East 489 563 39,000  Level Albuquerque Center
11:50AM 35.1817 -102.6969 85° East 495 570 39,000  Level Albuquerque Center
11:51AM 35.1903 -102.5306 86° East 493 567 39,000  Level Albuquerque Center
11:52AM 35.1983 -102.3639 87° East 493 567 39,000  Level Albuquerque Center
11:53AM 35.2078 -102.1947 86° East 499 574 39,000  Level Albuquerque Center
11:54AM 35.2178 -101.9933 86° East 497 572 39,000  Level Albuquerque Center
11:55AM 35.2286 -101.8269 85° East 501 577 39,000  Level Albuquerque Center
11:56AM 35.2375 -101.6442 87° East 501 577 39,000  Level Albuquerque Center
11:58AM 35.2461 -101.4753 86° East 499 574 39,000  Level Albuquerque Center
11:59AM 35.2522 -101.2975 88° East 502 578 39,000  Level Albuquerque Center
12:00PM 35.2594 -101.1283 87° East 501 577 39,000  Level Albuquerque Center
12:01PM 35.2672 -100.9594 87° East 499 574 39,000  Level Albuquerque Center
12:02PM 35.2733 -100.7897 87° East 500 575 39,000  Level Albuquerque Center
12:03PM 35.2814 -100.5894 87° East 503 579 39,000  Level Albuquerque Center
12:04PM 35.2889 -100.4175 87° East 505 581 39,000  Level Albuquerque Center
12:05PM 35.2939 -100.2431 88° East 510 587 39,000  Level Albuquerque Center
12:06PM 35.3006 -100.0692 87° East 512 589 39,000  Level Albuquerque Center
12:07PM 35.3058 -99.8947 88° East 513 590 39,000  Level Albuquerque Center
12:08PM 35.3117 -99.7225 88° East 509 586 39,000  Level Albuquerque Center
12:09PM 35.3175 -99.5153 88° East 509 586 39,000  Level Albuquerque Center
12:10PM 35.3219 -99.3442 88° East 506 582 39,000  Level Albuquerque Center
12:11PM 35.3278 -99.1744 88° East 503 579 39,000  Level Albuquerque Center
12:12PM 35.3311 -99.0036 89° East 504 580 39,000  Level Albuquerque Center
12:13PM 35.3353 -98.8319 88° East 505 581 39,000  Level Albuquerque Center
12:14PM 35.3403 -98.6611 88° East 505 581 39,000  Level Albuquerque Center
12:15PM 35.3458 -98.4292 88° East 497 572 39,000  Level Fort Worth Center
12:16PM 35.3469 -98.2561 89° East 497 572 39,000  Level Fort Worth Center
12:17PM 35.3522 -98.0856 88° East 497 572 39,000  Level Fort Worth Center
12:18PM 35.3531 -97.9100 90° East 497 572 39,000  Level Fort Worth Center
12:19PM 35.3558 -97.7394 89° East 497 572 39,000  Level Fort Worth Center
12:20PM 35.3561 -97.5664 90° East 497 572 39,000  Level Fort Worth Center
12:21PM 35.3583 -97.3653 89° East 517 595 39,000  Level Fort Worth Center
12:22PM 35.3561 -97.1894 91° East 517 595 39,000  Level Fort Worth Center
12:23PM 35.3472 -97.0139 94° East 517 595 39,000  Level Fort Worth Center
12:24PM 35.3444 -96.8383 91° East 517 595 39,000  Level Fort Worth Center
12:25PM 35.3394 -96.6603 92° East 517 595 39,000  Level Fort Worth Center
12:26PM 35.3361 -96.4872 91° East 512 589 39,000  Level Fort Worth Center
12:27PM 35.3325 -96.3142 91° East 512 589 39,000  Level Fort Worth Center
12:28PM 35.3269 -96.1414 92° East 512 589 39,000  Level Fort Worth Center
12:29PM 35.3228 -95.9708 92° East 507 583 39,000  Level Fort Worth Center
12:30PM 35.3189 -95.8031 92° East 502 578 39,000  Level Fort Worth Center
12:31PM 35.3164 -95.6353 91° East 495 570 39,000  Level Fort Worth Center
12:34PM 35.3003 -95.2239 93° East 501 577 39,000  Level Memphis Center
12:35PM 35.2942 -95.0581 93° East 496 571 39,000  Level Memphis Center
12:36PM 35.2900 -94.8900 92° East 496 571 39,000  Level Memphis Center
12:37PM 35.2836 -94.7244 93° East 496 571 39,000  Level Memphis Center
12:38PM 35.2789 -94.5564 92° East 491 565 39,000  Level Memphis Center
12:39PM 35.2739 -94.3933 92° East 486 559 39,000  Level Memphis Center
12:40PM 35.2644 -94.2300 94° East 481 554 39,000  Level Memphis Center
12:41PM 35.2589 -94.0644 92° East 481 554 39,000  Level Memphis Center
12:42PM 35.2533 -93.9017 92° East 481 554 39,000  Level Memphis Center
12:43PM 35.2431 -93.7408 94° East 481 554 39,000  Level Memphis Center
12:44PM 35.2369 -93.5781 93° East 476 548 39,000  Level Memphis Center
12:45PM 35.2286 -93.4175 94° East 481 554 39,000  Level Memphis Center
12:46PM 35.2236 -93.2750 92° East 473 544 39,000  Level Memphis Center
12:47PM 35.2150 -93.1094 94° East 473 544 39,000  Level Memphis Center
12:48PM 35.2058 -92.9442 94° East 479 551 39,000  Level Memphis Center
12:49PM 35.2008 -92.7839 92° East 480 552 39,000  Level Memphis Center
12:50PM 35.1856 -92.6006 96° East 485 558 39,000  Level Memphis Center
12:51PM 35.1775 -92.4556 94° East 479 551 39,000  Level Memphis Center
12:52PM 35.1697 -92.2953 93° East 479 551 39,000  Level Memphis Center
12:53PM 35.1594 -92.1350 94° East 479 551 39,000  Level Memphis Center
12:54PM 35.1514 -91.9772 94° East 479 551 39,000  Level Memphis Center
12:55PM 35.1408 -91.8147 94° East 479 551 39,000  Level Memphis Center
12:56PM 35.1281 -91.6544 96° East 474 545 39,000  Level Memphis Center
12:57PM 35.1211 -91.4944 93° East 474 545 39,000  Level Memphis Center
12:58PM 35.1142 -91.3419 93° East 462 532 39,000  Level Memphis Center
12:59PM 35.1028 -91.1819 95° East 462 532 39,000  Level Memphis Center
01:00PM 35.0892 -91.0067 95° East 462 532 39,000  Level Memphis Center
01:01PM 35.0814 -90.8494 93° East 462 532 39,000  Level Memphis Center
01:02PM 35.0694 -90.6894 95° East 462 532 39,000  Level Memphis Center
01:03PM 35.0572 -90.5294 95° East 462 532 39,000  Level Memphis Center
01:04PM 35.0450 -90.3722 95° East 462 532 39,000  Level Memphis Center
01:05PM 35.0344 -90.2150 95° East 462 532 39,000  Level Memphis Center
01:06PM 35.0258 -90.0553 94° East 462 532 39,000  Level Memphis Center
01:07PM 35.0086 -89.8956 97° East 462 532 39,000  Level Memphis Center
01:08PM 34.9892 -89.7461 99° East 470 541 39,000  Level Memphis Center
01:09PM 34.9631 -89.5817 101° East 487 560 39,000  Level Memphis Center
01:10PM 34.9328 -89.4097 102° East 480 552 39,000  Level Memphis Center
01:11PM 34.9086 -89.2531 101° East 467 537 39,000  Level Memphis Center
01:12PM 34.8861 -89.1014 100° East 467 537 39,000  Level Memphis Center
01:13PM 34.8594 -88.9450 102° East 464 534 39,000  Level Memphis Center
01:14PM 34.8367 -88.7883 100° East 464 534 39,000  Level Memphis Center
01:15PM 34.8117 -88.6347 101° East 469 540 39,000  Level Memphis Center
01:16PM 34.7886 -88.4858 101° East 453 521 39,000  Level Memphis Center
01:17PM 34.7633 -88.3272 101° East 453 521 39,000 -240 Level Memphis Center
01:18PM 34.7444 -88.2039 101° East 453 521 38,600 -840 Descending Memphis Center
01:19PM 34.7142 -88.0278 102° East 478 550 37,400 -1,260 Descending Memphis Center
01:20PM 34.6881 -87.8667 101° East 473 544 36,100 -1,200 Descending Memphis Center
01:21PM 34.6661 -87.7133 100° East 473 544 35,000 -1,080 Descending Memphis Center
01:22PM 34.6397 -87.5578 102° East 468 539 34,000 -840 Descending Memphis Center
01:23PM 34.6036 -87.3372 101° East 469 540 33,000 -420 Descending Atlanta Center
01:24PM 34.5722 -87.1819 104° East 474 545 33,000  Level Atlanta Center
01:25PM 34.5428 -87.0219 103° East 474 545 33,000  Level Atlanta Center
01:26PM 34.5092 -86.8519 103° East 474 545 33,000  Level Atlanta Center
01:27PM 34.4731 -86.6969 106° East 474 545 33,000 -660 Level Atlanta Center
01:28PM 34.4306 -86.5422 108° East 480 552 31,700 -1,200 Descending Atlanta Center
01:29PM 34.3792 -86.3919 112° Southeast 485 558 30,700 -1,140 Descending Atlanta Center
01:30PM 34.3297 -86.2422 112° Southeast 485 558 29,500 -1,140 Descending Atlanta Center
01:31PM 34.2822 -86.0903 111° Southeast 480 552 28,500 -1,200 Descending Atlanta Center
01:32PM 34.2386 -85.9511 111° Southeast 463 533 27,200 -1,260 Descending Atlanta Center
01:33PM 34.1989 -85.8219 110° East 433 498 26,000 -1,800 Descending Atlanta Center
01:34PM 34.1628 -85.7108 111° Southeast 405 466 23,600 -2,460 Descending Atlanta Center
01:35PM 34.1186 -85.5794 112° Southeast 410 472 21,100 -2,400 Descending Atlanta Center
01:36PM 34.0722 -85.4381 112° Southeast 417 480 18,800 -2,340 Descending Atlanta Center
01:37PM 34.0297 -85.3122 112° Southeast 411 473 16,500 -1,680 Descending Atlanta Center
01:38PM 33.9933 -85.1864 109° East 403 464 15,500 -1,200 Descending Atlanta Center
01:40PM 33.9267 -84.9475 109° East 374 430 13,000 -840 Descending Atlanta Center
01:41PM 33.8794 -84.8419 118° Southeast 363 418 13,000  Level Atlanta Center
01:42PM 33.8256 -84.7439 123° Southeast 358 412 13,000 -180 Level Atlanta Center
01:43PM 33.8000 -84.6833 117° Southeast 355 409 12,800 -660 Descending Atlanta TRACON
01:44PM 33.7500 -84.5833 121° Southeast 327 376 12,000 -960 Descending Atlanta TRACON
01:45PM 33.7333 -84.5000 104° East 300 345 10,900 -1,320 Descending Atlanta TRACON
01:46PM 33.7333 -84.4000 90° East 259 298 9,300 -1,620 Descending Atlanta TRACON
01:47PM 33.7333 -84.3167 90° East 248 285 7,700 -1,860 Descending Atlanta TRACON
01:48PM 33.7333 -84.2500 90° East 241 277 5,800 -1,800 Descending Atlanta TRACON
01:49PM 33.7000 -84.2000 129° Southeast 232 267 4,100 -1,740 Descending Atlanta TRACON